createdAt,value
2022-12-03T00:02:26.895Z,4.68
2022-12-03T00:04:54.227Z,4.97
2022-12-03T00:07:21.493Z,5.04
2022-12-03T00:09:48.611Z,5.08
2022-12-03T00:12:15.850Z,4.71
2022-12-03T00:14:52.475Z,5.08
2022-12-03T00:17:19.571Z,4.95
2022-12-03T00:19:46.739Z,4.90
2022-12-03T00:22:13.980Z,4.81
2022-12-03T00:24:41.116Z,4.71
2022-12-03T00:27:08.479Z,4.85
2022-12-03T00:29:35.658Z,4.22
2022-12-03T00:32:02.881Z,5.04
2022-12-03T00:34:29.935Z,4.28
2022-12-03T00:36:57.006Z,4.86
2022-12-03T00:39:24.312Z,5.15
2022-12-03T00:41:51.481Z,5.09
2022-12-03T00:44:18.757Z,5.06
2022-12-03T00:46:45.962Z,5.16
2022-12-03T00:49:13.429Z,5.21
2022-12-03T00:51:40.598Z,4.35
2022-12-03T00:54:07.721Z,5.16
2022-12-03T00:56:34.827Z,4.88
2022-12-03T00:59:02.032Z,5.08
2022-12-03T01:01:29.242Z,4.92
2022-12-03T01:03:56.509Z,5.17
2022-12-03T01:06:23.681Z,4.92
2022-12-03T01:08:50.881Z,4.72
2022-12-03T01:11:36.341Z,5.05
2022-12-03T01:14:05.303Z,4.99
2022-12-03T01:16:32.660Z,5.08
2022-12-03T01:18:59.977Z,4.97
2022-12-03T01:21:27.084Z,4.72
2022-12-03T01:23:54.387Z,5.22
2022-12-03T01:26:21.802Z,5.22
2022-12-03T01:28:48.914Z,5.16
2022-12-03T01:31:34.511Z,5.14
2022-12-03T01:34:01.741Z,4.83
2022-12-03T01:36:28.964Z,5.11
2022-12-03T01:38:56.031Z,4.79
2022-12-03T01:41:24.781Z,5.16
2022-12-03T01:43:54.013Z,5.13
2022-12-03T01:46:24.503Z,4.96
2022-12-03T01:48:54.040Z,4.55
2022-12-03T01:51:21.430Z,5.02
2022-12-03T01:53:49.249Z,4.92
2022-12-03T01:56:18.129Z,5.10
2022-12-03T01:58:47.135Z,4.83
2022-12-03T02:01:17.991Z,5.02
2022-12-03T02:03:46.388Z,5.18
2022-12-03T02:06:19.883Z,5.02
2022-12-03T02:08:48.008Z,5.25
2022-12-03T02:11:25.713Z,5.31
2022-12-03T02:13:57.594Z,4.87
2022-12-03T02:16:24.823Z,5.22
2022-12-03T02:18:52.179Z,4.98
2022-12-03T02:21:54.883Z,4.92
2022-12-03T02:24:41.437Z,5.27
2022-12-03T02:27:08.577Z,4.85
2022-12-03T02:29:36.211Z,5.01
2022-12-03T02:32:03.614Z,4.89
2022-12-03T02:34:42.567Z,4.14
2022-12-03T02:37:14.359Z,4.98
2022-12-03T02:39:46.686Z,5.01
2022-12-03T02:42:32.593Z,4.59
2022-12-03T02:45:05.416Z,5.02
2022-12-03T02:47:52.734Z,4.72
2022-12-03T02:50:23.807Z,4.34
2022-12-03T02:52:53.672Z,4.97
2022-12-03T02:55:21.551Z,4.59
2022-12-03T02:57:50.607Z,4.98
2022-12-03T03:00:18.727Z,4.93
2022-12-03T03:02:47.313Z,5.03
2022-12-03T03:05:16.392Z,4.88
2022-12-03T03:07:43.733Z,5.07
2022-12-03T03:10:14.154Z,5.02
2022-12-03T03:12:41.406Z,5.03
2022-12-03T03:15:11.627Z,4.96
2022-12-03T03:17:39.358Z,4.95
2022-12-03T03:20:08.266Z,5.08
2022-12-03T03:22:40.385Z,4.98
2022-12-03T03:25:15.469Z,5.18
2022-12-03T03:27:43.426Z,5.05
2022-12-03T03:30:11.477Z,4.96
2022-12-03T03:32:40.235Z,4.98
2022-12-03T03:35:09.046Z,5.02
2022-12-03T03:37:36.295Z,5.07
2022-12-03T03:40:03.881Z,4.90
2022-12-03T03:42:31.011Z,5.01
2022-12-03T03:44:58.631Z,5.05
2022-12-03T03:47:25.977Z,5.05
2022-12-03T03:49:53.589Z,4.61
2022-12-03T03:52:21.148Z,4.79
2022-12-03T03:54:48.618Z,4.95
2022-12-03T03:57:16.046Z,4.89
2022-12-03T03:59:43.564Z,4.90
2022-12-03T04:02:22.726Z,4.62
2022-12-03T04:04:50.898Z,4.89
2022-12-03T04:07:18.113Z,4.73
2022-12-03T04:09:45.155Z,4.99
2022-12-03T04:12:31.897Z,5.03
2022-12-03T04:14:59.092Z,5.02
2022-12-03T04:17:26.506Z,5.04
2022-12-03T04:19:53.723Z,4.40
2022-12-03T04:22:39.606Z,4.80
2022-12-03T04:25:27.263Z,5.09
2022-12-03T04:28:30.254Z,4.95
2022-12-03T04:30:57.407Z,4.97
2022-12-03T04:33:42.945Z,5.00
2022-12-03T04:36:10.433Z,5.00
2022-12-03T04:38:37.724Z,4.73
2022-12-03T04:41:04.980Z,4.97
2022-12-03T04:43:34.515Z,4.76
2022-12-03T04:46:03.031Z,4.94
2022-12-03T04:48:30.181Z,4.95
2022-12-03T04:50:57.289Z,4.92
2022-12-03T04:53:24.392Z,4.56
2022-12-03T04:55:51.454Z,4.87
2022-12-03T04:58:18.583Z,4.60
2022-12-03T05:00:45.861Z,4.82
2022-12-03T05:03:12.920Z,4.79
2022-12-03T05:05:40.095Z,4.64
2022-12-03T05:08:07.426Z,4.41
2022-12-03T05:10:34.669Z,4.33
2022-12-03T05:13:01.806Z,4.30
2022-12-03T05:15:28.998Z,4.23
2022-12-03T05:17:56.060Z,4.57
2022-12-03T05:20:41.457Z,4.58
2022-12-03T05:23:13.570Z,4.53
2022-12-03T05:25:41.411Z,4.72
2022-12-03T05:28:08.601Z,4.66
2022-12-03T05:30:36.190Z,4.62
2022-12-03T05:33:03.342Z,4.44
2022-12-03T05:35:30.355Z,4.25
2022-12-03T05:37:57.605Z,4.33
2022-12-03T05:40:43.502Z,4.30
2022-12-03T05:43:10.627Z,4.11
2022-12-03T05:45:40.180Z,4.00
2022-12-03T05:48:10.884Z,4.18
2022-12-03T05:50:39.537Z,3.93
2022-12-03T05:53:17.055Z,4.20
2022-12-03T05:55:44.126Z,4.20
2022-12-03T05:58:12.064Z,4.24
2022-12-03T06:00:42.708Z,4.14
2022-12-03T06:03:10.836Z,4.25
2022-12-03T06:05:38.170Z,4.30
2022-12-03T06:08:05.377Z,4.30
2022-12-03T06:10:32.705Z,3.61
2022-12-03T06:12:59.948Z,4.42
2022-12-03T06:15:27.179Z,4.49
2022-12-03T06:17:54.359Z,4.55
2022-12-03T06:20:21.709Z,4.60
2022-12-03T06:22:49.063Z,4.50
2022-12-03T06:25:16.717Z,3.99
2022-12-03T06:27:44.798Z,4.46
2022-12-03T06:30:13.748Z,4.65
2022-12-03T06:32:40.783Z,4.69
2022-12-03T06:35:08.418Z,4.72
2022-12-03T06:37:35.635Z,4.68
2022-12-03T06:40:03.040Z,4.73
2022-12-03T06:42:30.419Z,4.85
2022-12-03T06:44:57.626Z,4.94
2022-12-03T06:59:05.770Z,3.33
2022-12-03T07:11:35.012Z,3.92
2022-12-03T07:14:21.677Z,3.43
2022-12-03T07:20:31.424Z,4.37
2022-12-03T07:22:58.531Z,4.49
2022-12-03T07:25:25.673Z,4.45
2022-12-03T07:27:52.859Z,4.28
2022-12-03T07:30:20.183Z,4.12
2022-12-03T07:32:47.672Z,4.16
2022-12-03T07:35:15.952Z,4.25
2022-12-03T07:37:43.413Z,4.04
2022-12-03T07:40:11.587Z,4.18
2022-12-03T07:42:38.673Z,4.01
2022-12-03T07:45:06.419Z,4.09
2022-12-03T07:47:33.596Z,4.18
2022-12-03T07:50:00.636Z,4.13
2022-12-03T07:52:27.787Z,4.10
2022-12-03T07:54:55.032Z,4.09
2022-12-03T07:57:22.358Z,3.64
2022-12-03T07:59:49.514Z,3.91
2022-12-03T08:02:21.345Z,4.06
2022-12-03T08:04:49.035Z,4.17
2022-12-03T08:07:16.286Z,4.18
2022-12-03T08:09:43.651Z,4.23
2022-12-03T08:12:43.104Z,4.37
2022-12-03T08:15:15.294Z,4.60
2022-12-03T08:17:44.250Z,4.88
2022-12-03T08:20:20.040Z,4.95
2022-12-03T08:22:50.930Z,4.98
2022-12-03T08:25:23.041Z,4.94
2022-12-03T08:27:52.678Z,4.82
2022-12-03T08:30:20.008Z,4.94
2022-12-03T08:32:48.048Z,4.73
2022-12-03T08:35:23.242Z,4.93
2022-12-03T08:38:02.159Z,4.55
2022-12-03T08:40:34.935Z,4.59
2022-12-03T08:43:19.349Z,4.67
2022-12-03T08:45:50.011Z,4.80
2022-12-03T08:48:33.519Z,4.86
2022-12-03T08:51:05.246Z,4.88
2022-12-03T08:53:34.040Z,4.85
2022-12-03T08:56:04.891Z,4.77
2022-12-03T08:58:40.802Z,4.86
2022-12-03T09:01:11.083Z,4.95
2022-12-03T09:03:44.835Z,4.63
2022-12-03T09:06:12.298Z,4.42
2022-12-03T09:08:39.683Z,4.32
2022-12-03T09:11:06.920Z,4.53
2022-12-03T09:13:34.176Z,3.84
2022-12-03T09:16:01.328Z,4.37
2022-12-03T09:18:28.582Z,4.72
2022-12-03T09:20:57.263Z,4.65
2022-12-03T09:23:24.692Z,4.37
2022-12-03T09:25:51.930Z,3.90
2022-12-03T09:28:19.196Z,4.62
2022-12-03T09:30:46.397Z,4.46
2022-12-03T09:33:14.715Z,4.74
2022-12-03T09:35:41.870Z,4.72
2022-12-03T09:38:09.304Z,4.33
2022-12-03T09:40:36.533Z,4.88
2022-12-03T09:43:05.157Z,4.90
2022-12-03T09:45:32.652Z,5.09
2022-12-03T09:48:03.851Z,5.10
2022-12-03T09:50:31.653Z,4.92
2022-12-03T09:53:02.593Z,4.94
2022-12-03T09:55:30.897Z,4.74
2022-12-03T09:57:58.628Z,4.69
2022-12-03T10:00:29.870Z,4.73
2022-12-03T10:03:02.269Z,4.74
2022-12-03T10:05:30.284Z,4.59
2022-12-03T10:08:13.499Z,4.72
2022-12-03T10:10:42.134Z,4.64
2022-12-03T10:13:17.127Z,4.57
2022-12-03T10:15:48.806Z,4.98
2022-12-03T10:18:27.681Z,4.76
2022-12-03T10:20:58.003Z,4.93
2022-12-03T10:23:44.304Z,4.72
2022-12-03T10:26:11.535Z,4.62
2022-12-03T10:28:41.715Z,4.59
2022-12-03T10:31:13.147Z,4.28
2022-12-03T10:33:45.300Z,4.57
2022-12-03T10:36:19.056Z,4.21
2022-12-03T10:38:46.702Z,3.98
2022-12-03T10:41:25.684Z,4.19
2022-12-03T10:43:52.967Z,4.17
2022-12-03T10:46:23.396Z,4.59
2022-12-03T10:49:17.499Z,4.58
2022-12-03T10:51:46.914Z,4.32
2022-12-03T10:54:23.221Z,4.70
2022-12-03T10:56:52.381Z,4.58
2022-12-03T10:59:26.170Z,4.73
2022-12-03T11:01:53.473Z,4.63
2022-12-03T11:04:29.139Z,4.81
2022-12-03T11:06:56.267Z,4.48
2022-12-03T11:09:30.355Z,4.93
2022-12-03T11:12:05.598Z,4.93
2022-12-03T11:15:06.374Z,4.70
2022-12-03T11:17:53.612Z,4.65
2022-12-03T11:20:23.001Z,4.84
2022-12-03T11:22:55.511Z,4.42
2022-12-03T11:25:25.846Z,4.96
2022-12-03T11:28:11.805Z,5.02
2022-12-03T11:31:11.885Z,5.13
2022-12-03T11:33:41.374Z,5.03
2022-12-03T11:36:13.226Z,4.87
2022-12-03T11:38:54.043Z,4.89
2022-12-03T11:41:27.784Z,4.89
2022-12-03T11:43:58.438Z,4.50
2022-12-03T11:46:38.150Z,4.86
2022-12-03T11:49:26.256Z,4.58
2022-12-03T11:51:53.580Z,4.64
2022-12-03T11:54:23.226Z,4.98
2022-12-03T11:56:52.420Z,4.92
2022-12-03T11:59:20.379Z,4.97
2022-12-03T12:01:47.823Z,4.86
2022-12-03T12:04:33.089Z,4.75
2022-12-03T12:07:01.384Z,4.81
2022-12-03T12:09:48.080Z,4.78
2022-12-03T12:12:21.200Z,4.85
2022-12-03T12:14:48.530Z,4.70
2022-12-03T12:17:36.774Z,4.83
2022-12-03T12:20:25.445Z,5.03
2022-12-03T12:22:54.562Z,5.05
2022-12-03T12:25:33.862Z,4.91
2022-12-03T12:28:02.742Z,4.83
2022-12-03T12:30:30.601Z,4.77
2022-12-03T12:33:19.933Z,4.83
2022-12-03T12:35:47.260Z,4.82
2022-12-03T12:38:17.848Z,4.61
2022-12-03T12:40:49.544Z,4.68
2022-12-03T12:43:27.868Z,3.62
2022-12-03T12:46:13.544Z,4.71
2022-12-03T12:48:47.257Z,4.45
2022-12-03T12:51:19.614Z,4.70
2022-12-03T12:53:47.171Z,4.75
2022-12-03T12:56:27.594Z,4.83
2022-12-03T12:58:59.514Z,4.78
2022-12-03T13:01:29.867Z,4.72
2022-12-03T13:03:57.577Z,4.72
2022-12-03T13:06:28.709Z,4.61
2022-12-03T13:08:56.916Z,4.04
2022-12-03T13:11:42.347Z,4.74
2022-12-03T13:14:19.710Z,4.76
2022-12-03T13:16:48.975Z,3.86
2022-12-03T13:19:30.641Z,3.86
2022-12-03T13:22:01.808Z,4.52
2022-12-03T13:24:40.787Z,4.55
2022-12-03T13:27:14.863Z,4.58
2022-12-03T13:29:42.398Z,4.64
2022-12-03T13:45:47.293Z,4.59
2022-12-03T14:08:26.027Z,2.51
2022-12-03T14:11:58.633Z,2.94
2022-12-03T14:18:01.135Z,3.43
2022-12-03T14:52:43.439Z,3.55
2022-12-03T14:56:24.601Z,3.42
2022-12-03T14:59:12.546Z,2.76
2022-12-03T15:01:43.058Z,3.33
2022-12-03T15:15:20.049Z,3.69
2022-12-03T15:50:40.219Z,4.14
2022-12-03T15:53:07.935Z,4.34
2022-12-03T15:55:35.237Z,3.51
2022-12-03T15:58:02.451Z,4.56
2022-12-03T16:00:29.597Z,4.52
2022-12-03T16:02:56.762Z,4.78
2022-12-03T16:05:24.273Z,4.07
2022-12-03T16:07:51.421Z,4.82
2022-12-03T16:10:21.596Z,4.96
2022-12-03T16:12:49.020Z,4.88
2022-12-03T16:15:16.380Z,4.71
2022-12-03T16:17:43.586Z,5.00
2022-12-03T16:20:12.195Z,4.96
2022-12-03T16:22:39.494Z,5.10
2022-12-03T16:25:07.402Z,5.15
2022-12-03T16:27:53.311Z,5.28
2022-12-03T16:30:21.439Z,5.18
2022-12-03T16:32:48.825Z,5.45
2022-12-03T16:35:16.199Z,6.01
2022-12-03T16:37:43.726Z,5.89
2022-12-03T16:40:11.341Z,4.91
2022-12-03T16:42:38.908Z,5.25
2022-12-03T16:45:09.784Z,5.16
2022-12-03T16:47:37.221Z,5.55
2022-12-03T16:50:07.807Z,5.20
2022-12-03T16:52:35.979Z,5.30
2022-12-03T16:55:03.471Z,5.39
2022-12-03T16:57:33.880Z,5.59
2022-12-03T17:00:01.514Z,5.46
2022-12-03T17:02:29.547Z,4.70
2022-12-03T17:04:57.024Z,5.57
2022-12-03T17:07:24.444Z,4.79
2022-12-03T17:09:51.751Z,5.47
2022-12-03T17:12:19.351Z,5.32
2022-12-03T17:14:46.515Z,5.52
2022-12-03T17:17:14.196Z,5.49
2022-12-03T17:19:41.422Z,5.52
2022-12-03T17:22:08.887Z,5.25
2022-12-03T17:24:36.363Z,5.54
2022-12-03T17:27:06.343Z,5.55
2022-12-03T17:29:34.306Z,5.52
2022-12-03T17:32:01.571Z,5.06
2022-12-03T17:34:29.900Z,5.51
2022-12-03T17:36:56.992Z,5.37
2022-12-03T17:39:24.653Z,5.28
2022-12-03T17:41:51.817Z,5.52
2022-12-03T17:44:21.223Z,5.52
2022-12-03T17:46:48.592Z,5.50
2022-12-03T17:49:15.869Z,5.39
2022-12-03T17:51:43.281Z,5.38
2022-12-03T17:54:10.426Z,5.51
2022-12-03T17:56:39.493Z,5.44
2022-12-03T17:59:06.704Z,5.49
2022-12-03T18:01:33.985Z,5.56
2022-12-03T18:04:01.581Z,5.60
2022-12-03T18:06:28.892Z,5.62
2022-12-03T18:08:56.326Z,5.38
2022-12-03T18:11:24.160Z,5.38
2022-12-03T18:13:51.628Z,5.52
2022-12-03T18:16:19.162Z,5.57
2022-12-03T18:18:46.499Z,5.61
2022-12-03T18:21:14.476Z,5.47
2022-12-03T18:23:43.228Z,5.57
2022-12-03T18:26:10.426Z,5.29
2022-12-03T18:28:38.945Z,5.55
2022-12-03T18:31:17.986Z,5.40
2022-12-03T18:33:45.663Z,5.31
2022-12-03T18:36:22.229Z,5.40
2022-12-03T18:38:52.470Z,4.85
2022-12-03T18:41:20.098Z,5.40
2022-12-03T18:43:47.911Z,5.30
2022-12-03T18:46:45.149Z,5.45
2022-12-03T18:49:04.513Z,4.92
2022-12-03T18:51:31.641Z,5.50
2022-12-03T18:53:59.036Z,5.40
2022-12-03T18:56:26.302Z,5.45
2022-12-03T18:58:53.882Z,5.31
2022-12-03T19:01:22.793Z,5.24
2022-12-03T19:03:50.426Z,5.36
2022-12-03T19:06:21.134Z,4.75
2022-12-03T19:08:49.824Z,5.30
2022-12-03T19:11:17.136Z,5.34
2022-12-03T19:13:44.843Z,5.34
2022-12-03T19:16:12.475Z,5.40
2022-12-03T19:18:40.172Z,5.13
2022-12-03T19:21:12.271Z,5.32
2022-12-03T19:23:39.971Z,5.38
2022-12-03T19:26:09.974Z,5.34
2022-12-03T19:28:37.589Z,4.69
2022-12-03T19:31:11.888Z,4.78
2022-12-03T19:33:39.987Z,5.32
2022-12-03T19:36:08.008Z,4.54
2022-12-03T19:38:35.779Z,4.80
2022-12-03T19:41:10.802Z,5.13
2022-12-03T19:43:38.794Z,4.88
2022-12-03T19:46:12.744Z,4.50
2022-12-03T19:48:41.128Z,5.13
2022-12-03T19:51:33.034Z,5.16
2022-12-03T19:53:58.372Z,4.59
2022-12-03T19:56:25.757Z,5.14
2022-12-03T19:58:56.861Z,5.09
2022-12-03T20:01:28.210Z,5.24
2022-12-03T20:03:57.094Z,5.30
2022-12-03T20:06:27.487Z,5.35
2022-12-03T20:09:04.175Z,5.21
2022-12-03T20:11:34.430Z,5.25
2022-12-03T20:14:04.768Z,4.89
2022-12-03T20:16:32.965Z,5.34
2022-12-03T20:19:02.861Z,5.41
2022-12-03T20:21:32.912Z,5.32
2022-12-03T20:24:00.850Z,5.43
2022-12-03T20:26:28.832Z,5.47
2022-12-03T20:28:57.588Z,5.04
2022-12-03T20:31:28.600Z,5.32
2022-12-03T20:33:58.734Z,4.72
2022-12-03T20:36:27.330Z,5.39
2022-12-03T20:38:56.663Z,5.36
2022-12-03T20:41:24.704Z,4.74
2022-12-03T20:43:52.044Z,4.99
2022-12-03T20:46:31.538Z,5.37
2022-12-03T20:48:59.970Z,5.03
2022-12-03T20:51:30.212Z,5.43
2022-12-03T20:53:59.954Z,5.36
2022-12-03T20:56:31.490Z,5.48
2022-12-03T20:59:07.439Z,5.45
2022-12-03T21:01:36.425Z,4.71
2022-12-03T21:04:05.991Z,4.89
2022-12-03T21:06:36.035Z,5.04
2022-12-03T21:09:05.426Z,5.54
2022-12-03T21:11:33.692Z,5.56
2022-12-03T21:14:01.047Z,5.60
2022-12-03T21:17:06.035Z,5.61
2022-12-03T21:19:21.077Z,5.57
2022-12-03T21:21:49.203Z,5.60
2022-12-03T21:24:17.339Z,5.65
2022-12-03T21:26:44.531Z,5.70
2022-12-03T21:29:11.900Z,5.17
2022-12-03T21:31:40.128Z,5.70
2022-12-03T21:34:08.788Z,5.76
2022-12-03T21:36:36.407Z,5.68
2022-12-03T21:39:05.733Z,5.66
2022-12-03T21:41:35.173Z,5.59
2022-12-03T21:44:02.598Z,5.62
2022-12-03T21:47:09.359Z,5.65
2022-12-03T21:49:19.561Z,5.58
2022-12-03T21:51:47.195Z,5.62
2022-12-03T21:54:15.042Z,5.63
2022-12-03T21:56:42.426Z,5.58
2022-12-03T21:59:09.544Z,5.10
2022-12-03T22:01:36.834Z,5.34
2022-12-03T22:04:04.468Z,5.59
2022-12-03T22:06:31.685Z,5.35
2022-12-03T22:08:58.817Z,5.61
2022-12-03T22:11:26.027Z,5.64
2022-12-03T22:13:54.755Z,5.64
2022-12-03T22:16:22.203Z,5.67
2022-12-03T22:18:50.519Z,5.65
2022-12-03T22:21:20.034Z,5.60
2022-12-03T22:23:47.185Z,5.44
2022-12-03T22:26:16.978Z,4.75
2022-12-03T22:28:46.200Z,5.17
2022-12-03T22:31:14.433Z,5.45
2022-12-03T22:33:42.305Z,4.91
2022-12-03T22:36:20.022Z,4.48
2022-12-03T22:38:49.351Z,5.50
2022-12-03T22:41:16.627Z,5.55
2022-12-03T22:43:44.760Z,5.52
2022-12-03T22:46:13.097Z,5.60
2022-12-03T22:48:42.133Z,5.57
2022-12-03T22:51:21.167Z,5.53
2022-12-03T22:53:53.453Z,5.57
2022-12-03T22:56:22.475Z,5.57
2022-12-03T22:58:50.007Z,4.87
2022-12-03T23:01:32.646Z,5.52
2022-12-03T23:04:00.744Z,5.53
2022-12-03T23:06:28.931Z,5.50
2022-12-03T23:08:57.203Z,5.33
2022-12-03T23:11:25.177Z,5.33
2022-12-03T23:13:52.791Z,5.60
2022-12-03T23:16:23.207Z,5.53
2022-12-03T23:18:50.458Z,5.54
2022-12-03T23:21:25.527Z,5.45
2022-12-03T23:23:56.394Z,4.91
2022-12-03T23:26:23.688Z,5.25
2022-12-03T23:28:50.865Z,5.32
2022-12-03T23:31:27.290Z,5.19
2022-12-03T23:33:56.010Z,5.52
2022-12-03T23:36:25.565Z,5.31
2022-12-03T23:38:52.733Z,5.53
2022-12-03T23:41:21.606Z,5.41
2022-12-03T23:43:49.220Z,5.16
2022-12-03T23:46:25.256Z,5.17
2022-12-03T23:48:53.107Z,5.43
2022-12-03T23:51:24.678Z,5.34
2022-12-03T23:53:53.415Z,5.19
2022-12-03T23:56:23.906Z,5.43
2022-12-03T23:58:51.402Z,4.65
